createdAt,value
2022-12-11T00:00:45.810Z,89308.50
2022-12-11T00:02:06.924Z,89306.44
2022-12-11T00:03:28.134Z,89300.28
2022-12-11T00:04:49.063Z,89320.28
2022-12-11T00:06:10.962Z,89324.38
2022-12-11T00:07:32.072Z,89329.50
2022-12-11T00:08:54.180Z,89338.47
2022-12-11T00:10:15.303Z,89338.47
2022-12-11T00:11:36.261Z,89335.09
2022-12-11T00:12:56.952Z,89342.03
2022-12-11T00:14:17.992Z,89332.06
2022-12-11T00:15:38.837Z,89323.84
2022-12-11T00:16:59.608Z,89310.75
2022-12-11T00:18:20.376Z,89317.19
2022-12-11T00:19:41.444Z,89338.19
2022-12-11T00:21:03.170Z,89340.75
2022-12-11T00:22:24.271Z,89350.72
2022-12-11T00:23:44.989Z,89359.69
2022-12-11T00:25:06.200Z,89344.56
2022-12-11T00:26:27.245Z,89336.34
2022-12-11T00:27:48.379Z,89336.84
2022-12-11T00:29:14.423Z,89323.28
2022-12-11T00:30:38.696Z,89327.38
2022-12-11T00:31:59.574Z,89323.53
2022-12-11T00:33:20.302Z,89331.75
2022-12-11T00:34:40.898Z,89331.53
2022-12-11T00:36:01.938Z,89321.50
2022-12-11T00:37:22.625Z,89305.34
2022-12-11T00:38:43.923Z,89293.28
2022-12-11T00:40:04.798Z,89282.28
2022-12-11T00:41:25.826Z,89290.97
2022-12-11T00:42:46.787Z,89277.91
2022-12-11T00:44:07.611Z,89269.72
2022-12-11T00:45:28.222Z,89253.59
2022-12-11T00:46:48.974Z,89241.03
2022-12-11T00:48:10.535Z,89244.91
2022-12-11T00:49:31.741Z,89255.16
2022-12-11T00:50:52.371Z,89252.59
2022-12-11T00:52:13.137Z,89288.97
2022-12-11T00:53:34.023Z,89289.47
2022-12-11T00:54:54.824Z,89282.03
2022-12-11T00:56:17.178Z,89253.38
2022-12-11T00:57:38.222Z,89251.03
2022-12-11T00:58:58.924Z,89254.84
2022-12-11T01:00:19.851Z,89251.25
2022-12-11T01:01:40.705Z,89237.19
2022-12-11T01:03:01.719Z,89242.31
2022-12-11T01:04:23.328Z,89254.84
2022-12-11T01:05:54.262Z,89248.94
2022-12-11T01:07:14.916Z,89257.91
2022-12-11T01:08:38.740Z,89258.94
2022-12-11T01:10:18.102Z,89256.88
2022-12-11T01:11:39.666Z,89245.31
2022-12-11T01:13:01.899Z,89238.13
2022-12-11T01:14:22.697Z,89231.97
2022-12-11T01:15:45.108Z,89245.53
2022-12-11T01:17:05.858Z,89240.16
2022-12-11T01:18:26.650Z,89249.41
2022-12-11T01:19:47.802Z,89250.94
2022-12-11T01:21:09.792Z,89261.69
2022-12-11T01:22:31.101Z,89257.59
2022-12-11T01:23:51.934Z,89252.19
2022-12-11T01:25:12.739Z,89248.84
2022-12-11T01:26:33.912Z,89240.91
2022-12-11T01:27:55.606Z,89235.28
2022-12-11T01:29:16.455Z,89230.91
2022-12-11T01:30:38.105Z,89219.16
2022-12-11T01:31:59.138Z,89219.91
2022-12-11T01:33:19.888Z,89224.25
2022-12-11T01:34:40.334Z,89227.34
2022-12-11T01:36:00.983Z,89229.66
2022-12-11T01:37:21.618Z,89226.06
2022-12-11T01:38:42.405Z,89229.13
2022-12-11T01:40:05.349Z,89221.66
2022-12-11T01:41:25.950Z,89219.63
2022-12-11T01:42:46.738Z,89206.53
2022-12-11T01:44:27.499Z,89204.53
2022-12-11T01:45:49.036Z,89205.03
2022-12-11T01:47:10.091Z,89210.38
2022-12-11T01:48:32.927Z,89200.13
2022-12-11T01:49:54.332Z,89188.06
2022-12-11T01:51:15.092Z,89183.69
2022-12-11T01:52:36.497Z,89187.53
2022-12-11T01:54:07.248Z,89192.41
2022-12-11T01:55:28.467Z,89206.75
2022-12-11T01:56:51.984Z,89207.00
2022-12-11T01:58:13.471Z,89194.19
2022-12-11T01:59:36.653Z,89199.81
2022-12-11T02:00:58.644Z,89207.50
2022-12-11T02:02:30.129Z,89213.41
2022-12-11T02:03:51.098Z,89213.91
2022-12-11T02:05:12.669Z,89222.34
2022-12-11T02:06:36.609Z,89220.56
2022-12-11T02:07:58.871Z,89234.13
2022-12-11T02:09:25.409Z,89236.44
2022-12-11T02:10:46.254Z,89221.31
2022-12-11T02:12:06.913Z,89214.38
2022-12-11T02:13:33.657Z,89219.25
2022-12-11T02:15:23.865Z,89223.63
2022-12-11T02:16:49.152Z,89221.53
2022-12-11T02:18:23.928Z,89218.75
2022-12-11T02:19:47.489Z,89223.44
2022-12-11T02:21:15.787Z,89214.22
2022-12-11T02:22:39.688Z,89219.09
2022-12-11T02:24:00.477Z,89219.38
2022-12-11T02:25:25.760Z,89215.28
2022-12-11T02:27:11.367Z,89216.81
2022-12-11T02:28:35.077Z,89215.50
2022-12-11T02:30:09.179Z,89212.44
2022-12-11T02:31:38.819Z,89210.38
2022-12-11T02:32:59.616Z,89205.25
2022-12-11T02:34:29.414Z,89200.38
2022-12-11T02:35:50.841Z,89188.59
2022-12-11T02:37:15.261Z,89183.22
2022-12-11T02:38:37.918Z,89181.13
2022-12-11T02:39:58.906Z,89178.56
2022-12-11T02:41:20.977Z,89185.78
2022-12-11T02:42:42.939Z,89191.94
2022-12-11T02:44:05.246Z,89198.84
2022-12-11T02:45:27.584Z,89210.63
2022-12-11T02:46:49.373Z,89219.84
2022-12-11T02:48:11.256Z,89223.94
2022-12-11T02:49:34.019Z,89221.88
2022-12-11T02:50:57.955Z,89231.88
2022-12-11T02:52:21.787Z,89228.53
2022-12-11T02:53:44.266Z,89226.81
2022-12-11T02:55:07.138Z,89224.53
2022-12-11T02:56:36.800Z,89220.44
2022-12-11T02:58:16.296Z,89213.31
2022-12-11T02:59:38.865Z,89206.59
2022-12-11T03:00:59.988Z,89212.50
2022-12-11T03:02:21.200Z,89210.69
2022-12-11T03:03:42.528Z,89207.88
2022-12-11T03:05:04.473Z,89201.97
2022-12-11T03:06:28.323Z,89209.16
2022-12-11T03:07:49.496Z,89221.44
2022-12-11T03:09:10.211Z,89226.63
2022-12-11T03:10:30.819Z,89230.22
2022-12-11T03:11:52.217Z,89236.88
2022-12-11T03:13:14.260Z,89237.13
2022-12-11T03:14:35.978Z,89240.69
2022-12-11T03:15:56.497Z,89244.00
2022-12-11T03:17:19.281Z,89244.00
2022-12-11T03:19:09.547Z,89242.97
2022-12-11T03:20:38.131Z,89250.66
2022-12-11T03:21:58.797Z,89266.03
2022-12-11T03:23:34.709Z,89268.66
2022-12-11T03:25:01.251Z,89273.50
2022-12-11T03:26:23.911Z,89275.53
2022-12-11T03:27:56.641Z,89264.53
2022-12-11T03:29:23.284Z,89257.88
2022-12-11T03:30:45.445Z,89262.44
2022-12-11T03:32:12.653Z,89267.56
2022-12-11T03:33:36.316Z,89279.13
2022-12-11T03:34:59.809Z,89272.22
2022-12-11T03:36:24.566Z,89258.13
2022-12-11T03:37:46.552Z,89253.00
2022-12-11T03:39:12.850Z,89252.75
2022-12-11T03:40:35.686Z,89256.84
2022-12-11T03:41:57.385Z,89256.06
2022-12-11T03:43:20.222Z,89254.03
2022-12-11T03:44:42.845Z,89247.13
2022-12-11T03:46:04.633Z,89243.78
2022-12-11T03:47:27.194Z,89239.97
2022-12-11T03:48:49.660Z,89238.97
2022-12-11T03:50:12.484Z,89253.59
2022-12-11T03:51:34.462Z,89254.84
2022-12-11T03:52:56.866Z,89254.13
2022-12-11T03:54:18.698Z,89250.25
2022-12-11T03:55:39.687Z,89255.38
2022-12-11T03:57:02.075Z,89251.56
2022-12-11T03:58:22.691Z,89263.06
2022-12-11T03:59:43.580Z,89267.16
2022-12-11T04:01:08.207Z,89265.38
2022-12-11T04:02:28.852Z,89271.00
2022-12-11T04:03:49.476Z,89266.13
2022-12-11T04:05:11.392Z,89253.59
2022-12-11T04:06:32.132Z,89249.22
2022-12-11T04:07:53.095Z,89247.16
2022-12-11T04:09:13.813Z,89256.91
2022-12-11T04:10:34.620Z,89256.63
2022-12-11T04:11:55.373Z,89255.88
2022-12-11T04:13:16.317Z,89259.97
2022-12-11T04:14:55.656Z,89261.53
2022-12-11T04:16:16.734Z,89258.44
2022-12-11T04:17:56.208Z,89253.81
2022-12-11T04:19:35.507Z,89251.03
2022-12-11T04:21:15.075Z,89244.59
2022-12-11T04:22:54.137Z,89246.66
2022-12-11T04:24:17.667Z,89252.06
2022-12-11T04:25:38.453Z,89256.41
2022-12-11T04:26:59.333Z,89263.06
2022-12-11T04:28:20.393Z,89257.19
2022-12-11T04:29:41.027Z,89262.31
2022-12-11T04:31:02.005Z,89261.28
2022-12-11T04:32:22.486Z,89252.28
2022-12-11T04:33:43.567Z,89259.97
2022-12-11T04:35:04.836Z,89254.84
2022-12-11T04:36:25.743Z,89254.09
2022-12-11T04:37:46.732Z,89247.69
2022-12-11T04:39:07.411Z,89252.78
2022-12-11T04:40:28.352Z,89257.16
2022-12-11T04:41:49.193Z,89260.47
2022-12-11T04:43:09.845Z,89261.50
2022-12-11T04:44:30.769Z,89265.88
2022-12-11T04:45:51.240Z,89254.59
2022-12-11T04:47:11.927Z,89254.84
2022-12-11T04:48:32.651Z,89257.69
2022-12-11T04:49:53.550Z,89269.22
2022-12-11T04:51:14.573Z,89270.75
2022-12-11T04:52:35.542Z,89277.94
2022-12-11T04:53:56.497Z,89278.47
2022-12-11T04:55:19.985Z,89272.88
2022-12-11T04:56:40.792Z,89279.00
2022-12-11T04:58:01.833Z,89273.38
2022-12-11T04:59:22.674Z,89277.47
2022-12-11T05:00:43.788Z,89265.69
2022-12-11T05:02:04.877Z,89267.22
2022-12-11T05:03:25.555Z,89271.31
2022-12-11T05:04:46.212Z,89280.78
2022-12-11T05:06:08.003Z,89277.22
2022-12-11T05:07:29.001Z,89292.81
2022-12-11T05:08:49.688Z,89298.97
2022-12-11T05:10:10.392Z,89287.97
2022-12-11T05:11:31.472Z,89284.66
2022-12-11T05:12:52.488Z,89281.81
2022-12-11T05:14:14.187Z,89277.72
2022-12-11T05:15:34.772Z,89286.94
2022-12-11T05:16:55.611Z,89289.22
2022-12-11T05:18:16.232Z,89290.28
2022-12-11T05:19:37.177Z,89287.97
2022-12-11T05:20:58.976Z,89293.59
2022-12-11T05:22:20.221Z,89296.41
2022-12-11T05:23:41.638Z,89306.16
2022-12-11T05:25:02.741Z,89305.41
2022-12-11T05:26:23.730Z,89303.06
2022-12-11T05:27:44.592Z,89300.78
2022-12-11T05:29:05.298Z,89306.41
2022-12-11T05:30:26.473Z,89303.84
2022-12-11T05:31:47.330Z,89308.97
2022-12-11T05:33:08.259Z,89310.00
2022-12-11T05:34:28.935Z,89314.84
2022-12-11T05:35:50.002Z,89322.03
2022-12-11T05:37:10.712Z,89316.66
2022-12-11T05:38:31.277Z,89321.53
2022-12-11T05:39:52.236Z,89322.31
2022-12-11T05:41:14.268Z,89312.56
2022-12-11T05:42:35.012Z,89316.66
2022-12-11T05:43:56.158Z,89318.94
2022-12-11T05:45:16.784Z,89320.25
2022-12-11T05:46:37.799Z,89325.38
2022-12-11T05:47:58.805Z,89330.75
2022-12-11T05:49:20.136Z,89333.81
2022-12-11T05:50:40.803Z,89340.47
2022-12-11T05:52:01.503Z,89330.22
2022-12-11T05:53:22.099Z,89333.81
2022-12-11T05:54:43.010Z,89324.59
2022-12-11T05:56:05.050Z,89328.47
2022-12-11T05:57:25.607Z,89324.34
2022-12-11T05:58:46.593Z,89328.47
2022-12-11T06:00:07.823Z,89324.09
2022-12-11T06:01:30.563Z,89321.28
2022-12-11T06:02:51.966Z,89321.28
2022-12-11T06:04:13.362Z,89318.97
2022-12-11T06:05:42.001Z,89323.34
2022-12-11T06:07:03.460Z,89320.50
2022-12-11T06:08:24.451Z,89326.16
2022-12-11T06:09:45.474Z,89330.75
2022-12-11T06:11:06.685Z,89341.50
2022-12-11T06:12:28.418Z,89338.72
2022-12-11T06:13:49.337Z,89338.94
2022-12-11T06:15:10.515Z,89347.94
2022-12-11T06:16:32.172Z,89344.06
2022-12-11T06:17:53.097Z,89340.25
2022-12-11T06:19:20.000Z,89343.56
2022-12-11T06:20:40.711Z,89339.97
2022-12-11T06:22:01.701Z,89337.16
2022-12-11T06:23:22.446Z,89343.03
2022-12-11T06:24:43.095Z,89340.97
2022-12-11T06:26:04.347Z,89330.72
2022-12-11T06:27:25.147Z,89328.66
2022-12-11T06:28:45.971Z,89321.75
2022-12-11T06:30:07.055Z,89314.06
2022-12-11T06:31:27.969Z,89316.09
2022-12-11T06:32:48.677Z,89308.19
2022-12-11T06:34:11.248Z,89303.81
2022-12-11T06:35:31.865Z,89298.94
2022-12-11T06:36:53.024Z,89293.31
2022-12-11T06:38:14.126Z,89285.09
2022-12-11T06:39:34.784Z,89288.22
2022-12-11T06:40:56.836Z,89276.47
2022-12-11T06:42:17.561Z,89285.66
2022-12-11T06:43:40.161Z,89287.47
2022-12-11T06:45:01.073Z,89293.31
2022-12-11T06:46:22.071Z,89285.13
2022-12-11T06:47:43.705Z,89283.81
2022-12-11T06:49:04.616Z,89273.81
2022-12-11T06:50:25.431Z,89280.19
2022-12-11T06:51:46.538Z,89280.47
2022-12-11T06:53:07.479Z,89278.13
2022-12-11T06:54:28.532Z,89266.59
2022-12-11T06:55:49.333Z,89266.81
2022-12-11T06:57:10.377Z,89263.00
2022-12-11T06:58:31.401Z,89260.91
2022-12-11T06:59:52.482Z,89264.25
2022-12-11T07:01:23.966Z,89268.34
2022-12-11T07:02:44.946Z,89272.41
2022-12-11T07:04:05.690Z,89282.69
2022-12-11T07:05:26.724Z,89283.22
2022-12-11T07:06:49.277Z,89283.50
2022-12-11T07:08:10.397Z,89289.88
2022-12-11T07:09:31.157Z,89297.31
2022-12-11T07:10:52.014Z,89296.56
2022-12-11T07:12:12.650Z,89284.25
2022-12-11T07:13:33.870Z,89286.31
2022-12-11T07:14:54.890Z,89282.19
2022-12-11T07:16:16.937Z,89287.84
2022-12-11T07:17:37.972Z,89288.06
2022-12-11T07:18:58.467Z,89284.97
2022-12-11T07:20:19.191Z,89289.06
2022-12-11T07:21:40.355Z,89292.41
2022-12-11T07:23:01.037Z,89287.75
2022-12-11T07:24:22.132Z,89294.19
2022-12-11T07:25:42.831Z,89299.31
2022-12-11T07:27:04.221Z,89289.56
2022-12-11T07:28:26.150Z,89281.84
2022-12-11T07:29:46.971Z,89283.88
2022-12-11T07:31:08.657Z,89278.44
2022-12-11T07:32:29.804Z,89268.16
2022-12-11T07:33:57.609Z,89263.00
2022-12-11T07:35:18.191Z,89267.34
2022-12-11T07:36:38.670Z,89263.31
2022-12-11T07:37:59.742Z,89273.63
2022-12-11T07:39:20.728Z,89277.44
2022-12-11T07:40:41.707Z,89271.84
2022-12-11T07:42:02.637Z,89265.91
2022-12-11T07:43:23.530Z,89275.09
2022-12-11T07:44:44.233Z,89278.19
2022-12-11T07:46:06.924Z,89277.41
2022-12-11T07:47:27.783Z,89266.38
2022-12-11T07:48:49.361Z,89260.69
2022-12-11T07:50:10.572Z,89252.47
2022-12-11T07:51:32.061Z,89256.28
2022-12-11T07:52:52.697Z,89253.22
2022-12-11T07:54:16.657Z,89260.22
2022-12-11T07:55:37.286Z,89261.25
2022-12-11T07:56:57.992Z,89254.88
2022-12-11T07:58:18.887Z,89247.13
2022-12-11T07:59:39.653Z,89244.22
2022-12-11T08:01:00.804Z,89247.84
2022-12-11T08:02:22.220Z,89248.31
2022-12-11T08:03:43.561Z,89253.44
2022-12-11T08:05:04.761Z,89263.97
2022-12-11T08:06:27.037Z,89262.94
2022-12-11T08:07:47.951Z,89275.53
2022-12-11T08:09:17.475Z,89285.78
2022-12-11T08:10:41.212Z,89279.31
2022-12-11T08:12:01.945Z,89277.72
2022-12-11T08:13:22.876Z,89277.13
2022-12-11T08:14:43.406Z,89282.75
2022-12-11T08:16:07.983Z,89273.75
2022-12-11T08:17:31.025Z,89273.97
2022-12-11T08:18:54.533Z,89271.09
2022-12-11T08:20:15.275Z,89267.47
2022-12-11T08:21:36.338Z,89268.44
2022-12-11T08:22:59.188Z,89264.56
2022-12-11T08:24:20.976Z,89271.97
2022-12-11T08:25:41.927Z,89268.28
2022-12-11T08:27:02.908Z,89268.75
2022-12-11T08:28:23.879Z,89265.63
2022-12-11T08:29:45.825Z,89264.81
2022-12-11T08:31:08.193Z,89267.38
2022-12-11T08:32:29.285Z,89260.34
2022-12-11T08:33:50.338Z,89267.75
2022-12-11T08:35:11.215Z,89259.78
2022-12-11T08:36:32.724Z,89262.06
2022-12-11T08:37:53.532Z,89259.50
2022-12-11T08:39:14.112Z,89266.16
2022-12-11T08:40:34.918Z,89262.81
2022-12-11T08:41:55.613Z,89269.00
2022-12-11T08:43:16.777Z,89270.59
2022-12-11T08:44:37.621Z,89265.94
2022-12-11T08:45:58.271Z,89266.53
2022-12-11T08:47:19.083Z,89266.59
2022-12-11T08:48:40.717Z,89254.81
2022-12-11T08:50:01.581Z,89253.81
2022-12-11T08:51:23.787Z,89248.34
2022-12-11T08:52:44.301Z,89249.22
2022-12-11T08:54:05.056Z,89242.47
2022-12-11T08:55:25.636Z,89239.63
2022-12-11T08:56:46.367Z,89245.88
2022-12-11T08:58:07.202Z,89242.13
2022-12-11T08:59:28.034Z,89257.56
2022-12-11T09:00:48.843Z,89254.50
2022-12-11T09:02:13.222Z,89250.13
2022-12-11T09:03:34.145Z,89247.69
2022-12-11T09:04:55.056Z,89244.03
2022-12-11T09:06:17.098Z,89232.91
2022-12-11T09:07:38.552Z,89233.78
2022-12-11T09:09:00.720Z,89232.00
2022-12-11T09:10:21.809Z,89224.88
2022-12-11T09:11:42.880Z,89220.41
2022-12-11T09:13:03.911Z,89226.47
2022-12-11T09:14:24.878Z,89234.34
2022-12-11T09:15:45.845Z,89236.28
2022-12-11T09:17:06.691Z,89233.50
2022-12-11T09:18:27.713Z,89233.44
2022-12-11T09:19:48.865Z,89224.44
2022-12-11T09:21:10.974Z,89230.72
2022-12-11T09:22:32.657Z,89221.91
2022-12-11T09:23:57.914Z,89211.34
2022-12-11T09:25:18.808Z,89219.84
2022-12-11T09:26:40.105Z,89217.75
2022-12-11T09:28:01.555Z,89216.44
2022-12-11T09:29:22.250Z,89214.00
2022-12-11T09:30:43.000Z,89221.22
2022-12-11T09:32:03.728Z,89225.31
2022-12-11T09:33:24.566Z,89225.59
2022-12-11T09:34:45.354Z,89227.28
2022-12-11T09:36:06.560Z,89236.16
2022-12-11T09:37:27.336Z,89234.34
2022-12-11T09:38:48.116Z,89239.97
2022-12-11T09:40:11.040Z,89236.59
2022-12-11T09:41:37.883Z,89230.94
2022-12-11T09:43:03.393Z,89230.25
2022-12-11T09:44:44.397Z,89223.38
2022-12-11T09:46:09.092Z,89222.66
2022-12-11T09:47:35.979Z,89218.84
2022-12-11T09:48:57.019Z,89215.38
2022-12-11T09:50:23.202Z,89223.34
2022-12-11T09:51:46.492Z,89225.63
2022-12-11T09:53:17.669Z,89223.28
2022-12-11T09:54:43.902Z,89211.69
2022-12-11T09:56:13.136Z,89212.78
2022-12-11T09:57:48.530Z,89202.78
2022-12-11T09:59:29.661Z,89204.56
2022-12-11T10:00:53.475Z,89212.19
2022-12-11T10:02:20.140Z,89215.72
2022-12-11T10:03:44.018Z,89218.94
2022-12-11T10:05:19.862Z,89228.16
2022-12-11T10:06:48.521Z,89221.22
2022-12-11T10:08:16.000Z,89222.75
2022-12-11T10:09:46.117Z,89216.09
2022-12-11T10:11:24.904Z,89209.13
2022-12-11T10:12:45.759Z,89194.81
2022-12-11T10:14:24.924Z,89195.31
2022-12-11T10:15:45.515Z,89188.84
2022-12-11T10:17:11.574Z,89189.81
2022-12-11T10:18:33.044Z,89200.84
2022-12-11T10:19:55.234Z,89203.03
2022-12-11T10:21:18.209Z,89202.78
2022-12-11T10:22:39.036Z,89204.84
2022-12-11T10:24:02.680Z,89201.75
2022-12-11T10:25:32.027Z,89204.75
2022-12-11T10:26:55.687Z,89190.94
2022-12-11T10:28:24.489Z,89194.00
2022-12-11T10:29:46.423Z,89195.91
2022-12-11T10:31:17.356Z,89196.00
2022-12-11T10:32:47.530Z,89202.06
2022-12-11T10:34:27.006Z,89194.16
2022-12-11T10:35:57.949Z,89191.25
2022-12-11T10:37:18.979Z,89197.78
2022-12-11T10:38:44.011Z,89196.47
2022-12-11T10:40:05.566Z,89205.91
2022-12-11T10:41:40.463Z,89204.56
2022-12-11T10:43:01.394Z,89192.66
2022-12-11T10:44:21.994Z,89197.63
2022-12-11T10:45:51.454Z,89194.22
2022-12-11T10:47:15.247Z,89187.94
2022-12-11T10:48:45.532Z,89183.19
2022-12-11T10:50:06.703Z,89172.63
2022-12-11T10:51:27.248Z,89178.72
2022-12-11T10:52:47.997Z,89174.91
2022-12-11T10:54:17.355Z,89180.06
2022-12-11T10:55:43.745Z,89180.34
2022-12-11T10:57:05.601Z,89178.06
2022-12-11T10:58:34.041Z,89174.31
2022-12-11T10:59:55.582Z,89171.34
2022-12-11T11:01:17.022Z,89165.91
2022-12-11T11:02:39.957Z,89166.69
2022-12-11T11:04:01.373Z,89167.50
2022-12-11T11:05:28.599Z,89157.78
2022-12-11T11:06:49.882Z,89162.75
2022-12-11T11:08:19.836Z,89164.47
2022-12-11T11:09:41.302Z,89161.59
2022-12-11T11:11:02.058Z,89169.53
2022-12-11T11:12:26.225Z,89166.69
2022-12-11T11:13:46.961Z,89166.97
2022-12-11T11:15:12.247Z,89163.31
2022-12-11T11:16:36.426Z,89153.84
2022-12-11T11:18:01.234Z,89145.75
2022-12-11T11:19:27.307Z,89140.31
2022-12-11T11:20:48.607Z,89155.44
2022-12-11T11:22:14.129Z,89156.59
2022-12-11T11:23:37.618Z,89156.88
2022-12-11T11:25:00.407Z,89164.34
2022-12-11T11:26:22.991Z,89167.50
2022-12-11T11:27:45.428Z,89163.97
2022-12-11T11:29:07.035Z,89164.53
2022-12-11T11:30:28.077Z,89162.50
2022-12-11T11:31:49.031Z,89163.81
2022-12-11T11:33:14.147Z,89163.63
2022-12-11T11:34:35.110Z,89162.16
2022-12-11T11:35:57.310Z,89163.72
2022-12-11T11:37:31.580Z,89161.91
2022-12-11T11:39:03.715Z,89152.84
2022-12-11T11:40:30.445Z,89144.09
2022-12-11T11:42:11.439Z,89135.34
2022-12-11T11:43:38.377Z,89142.97
2022-12-11T11:45:05.328Z,89143.53
2022-12-11T11:46:36.677Z,89140.69
2022-12-11T11:48:11.601Z,89138.97
2022-12-11T11:49:34.391Z,89133.25
2022-12-11T11:50:57.335Z,89128.59
2022-12-11T11:52:36.776Z,89139.88
2022-12-11T11:54:00.055Z,89139.59
2022-12-11T11:55:27.188Z,89136.78
2022-12-11T11:56:49.679Z,89140.69
2022-12-11T11:58:13.658Z,89140.41
2022-12-11T11:59:39.792Z,89141.94
2022-12-11T12:01:00.719Z,89136.03
2022-12-11T12:02:21.796Z,89134.78
2022-12-11T12:03:42.750Z,89135.34
2022-12-11T12:05:05.445Z,89129.44
2022-12-11T12:06:26.158Z,89132.00
2022-12-11T12:08:06.115Z,89134.31
2022-12-11T12:09:33.447Z,89130.78
2022-12-11T12:11:03.032Z,89123.53
2022-12-11T12:12:37.359Z,89127.97
2022-12-11T12:14:17.399Z,89130.44
2022-12-11T12:15:51.558Z,89121.25
2022-12-11T12:17:20.474Z,89117.44
2022-12-11T12:18:41.685Z,89111.53
2022-12-11T12:20:02.399Z,89113.06
2022-12-11T12:21:44.754Z,89106.59
2022-12-11T12:23:36.469Z,89110.97
2022-12-11T12:25:03.278Z,89112.00
2022-12-11T12:26:35.472Z,89117.44
2022-12-11T12:27:57.863Z,89118.75
2022-12-11T12:29:24.600Z,89120.84
2022-12-11T12:31:04.529Z,89117.31
2022-12-11T12:32:28.427Z,89118.88
2022-12-11T12:34:01.065Z,89119.94
2022-12-11T12:35:35.902Z,89110.69
2022-12-11T12:37:09.381Z,89115.34
2022-12-11T12:38:35.827Z,89111.53
2022-12-11T12:40:09.697Z,89118.00
2022-12-11T12:41:51.085Z,89115.69
2022-12-11T12:43:44.829Z,89123.47
2022-12-11T12:45:17.957Z,89110.22
2022-12-11T12:46:58.056Z,89120.50
2022-12-11T12:48:19.139Z,89112.53
2022-12-11T12:49:44.784Z,89122.81
2022-12-11T12:51:06.706Z,89116.13
2022-12-11T12:52:35.323Z,89123.09
2022-12-11T12:53:57.939Z,89124.59
2022-12-11T12:55:24.298Z,89123.34
2022-12-11T12:56:47.103Z,89123.84
2022-12-11T12:58:24.137Z,89130.56
2022-12-11T12:59:53.718Z,89132.09
2022-12-11T13:01:41.330Z,89134.19
2022-12-11T13:03:13.018Z,89141.13
2022-12-11T13:04:56.251Z,89145.50
2022-12-11T13:06:27.986Z,89150.16
2022-12-11T13:07:54.179Z,89144.53
2022-12-11T13:09:22.579Z,89146.09
2022-12-11T13:10:43.684Z,89142.84
2022-12-11T13:12:12.638Z,89147.41
2022-12-11T13:13:38.457Z,89140.47
2022-12-11T13:14:59.757Z,89138.66
2022-12-11T13:16:20.393Z,89144.56
2022-12-11T13:17:41.297Z,89143.25
2022-12-11T13:19:02.283Z,89138.34
2022-12-11T13:20:24.513Z,89138.84
2022-12-11T13:21:55.098Z,89149.88
2022-12-11T13:23:17.924Z,89151.72
2022-12-11T13:24:59.673Z,89146.31
2022-12-11T13:26:30.688Z,89140.69
2022-12-11T13:27:51.759Z,89140.97
2022-12-11T13:29:31.257Z,89138.47
2022-12-11T13:30:59.406Z,89140.75
2022-12-11T13:32:24.689Z,89140.00
2022-12-11T13:33:49.787Z,89143.88
2022-12-11T13:35:15.851Z,89141.31
2022-12-11T13:36:38.265Z,89143.31
2022-12-11T13:38:16.969Z,89137.50
2022-12-11T13:39:39.526Z,89140.75
2022-12-11T13:41:00.565Z,89138.94
2022-12-11T13:42:40.810Z,89140.19
2022-12-11T13:44:02.534Z,89145.34
2022-12-11T13:45:26.115Z,89137.16
2022-12-11T13:46:47.521Z,89139.50
2022-12-11T13:48:26.904Z,89138.19
2022-12-11T13:49:51.180Z,89136.66
2022-12-11T13:51:19.825Z,89152.56
2022-12-11T13:52:40.670Z,89149.22
2022-12-11T13:54:05.373Z,89152.34
2022-12-11T13:55:30.773Z,89149.00
2022-12-11T13:56:55.917Z,89149.28
2022-12-11T13:58:22.057Z,89151.56
2022-12-11T13:59:46.829Z,89159.56
2022-12-11T14:01:21.084Z,89158.50
2022-12-11T14:02:42.781Z,89154.19
2022-12-11T14:04:09.101Z,89151.63
2022-12-11T14:05:30.945Z,89151.91
2022-12-11T14:06:51.887Z,89149.06
2022-12-11T14:08:20.584Z,89152.38
2022-12-11T14:09:45.878Z,89154.94
2022-12-11T14:11:07.361Z,89151.41
2022-12-11T14:12:29.318Z,89143.97
2022-12-11T14:13:50.646Z,89148.94
2022-12-11T14:15:13.641Z,89150.31
2022-12-11T14:16:35.025Z,89153.03
2022-12-11T14:17:56.780Z,89161.81
2022-12-11T14:19:21.747Z,89168.25
2022-12-11T14:20:42.849Z,89165.56
2022-12-11T14:22:05.488Z,89167.28
2022-12-11T14:23:36.584Z,89173.03
2022-12-11T14:24:58.932Z,89171.09
2022-12-11T14:26:21.466Z,89176.81
2022-12-11T14:27:47.785Z,89177.50
2022-12-11T14:29:23.207Z,89177.03
2022-12-11T14:30:48.229Z,89172.72
2022-12-11T14:32:09.181Z,89176.59
2022-12-11T14:33:35.367Z,89176.84
2022-12-11T14:34:56.333Z,89181.22
2022-12-11T14:36:17.891Z,89179.91
2022-12-11T14:37:39.505Z,89180.16
2022-12-11T14:39:05.065Z,89184.00
2022-12-11T14:40:29.753Z,89178.38
2022-12-11T14:42:17.195Z,89181.69
2022-12-11T14:43:41.037Z,89168.44
2022-12-11T14:45:02.223Z,89172.09
2022-12-11T14:46:39.004Z,89171.88
2022-12-11T14:48:00.862Z,89171.16
2022-12-11T14:49:41.782Z,89179.84
2022-12-11T14:51:04.412Z,89184.69
2022-12-11T14:52:32.432Z,89184.91
2022-12-11T14:53:54.486Z,89188.50
2022-12-11T14:55:21.226Z,89197.78
2022-12-11T14:56:44.355Z,89194.19
2022-12-11T14:58:16.686Z,89192.66
2022-12-11T14:59:44.620Z,89180.38
2022-12-11T15:01:06.978Z,89176.25
2022-12-11T15:02:32.744Z,89185.69
2022-12-11T15:04:02.788Z,89181.88
2022-12-11T15:05:23.798Z,89191.31
2022-12-11T15:06:46.068Z,89191.53
2022-12-11T15:08:10.539Z,89202.78
2022-12-11T15:09:34.416Z,89192.03
2022-12-11T15:10:59.645Z,89183.81
2022-12-11T15:12:20.416Z,89184.59
2022-12-11T15:13:47.342Z,89191.00
2022-12-11T15:15:15.151Z,89199.44
2022-12-11T15:16:38.280Z,89199.16
2022-12-11T15:18:00.812Z,89204.53
2022-12-11T15:19:24.305Z,89202.19
2022-12-11T15:20:50.343Z,89209.59
2022-12-11T15:22:14.708Z,89205.28
2022-12-11T15:23:49.267Z,89201.41
2022-12-11T15:25:18.853Z,89197.81
2022-12-11T15:26:46.702Z,89191.94
2022-12-11T15:28:25.740Z,89192.97
2022-12-11T15:29:46.863Z,89187.84
2022-12-11T15:31:25.177Z,89185.78
2022-12-11T15:32:46.410Z,89198.09
2022-12-11T15:34:21.337Z,89206.25
2022-12-11T15:35:52.096Z,89209.09
2022-12-11T15:37:33.456Z,89207.56
2022-12-11T15:38:54.454Z,89208.31
2022-12-11T15:40:15.328Z,89210.38
2022-12-11T15:41:36.219Z,89208.56
2022-12-11T15:42:58.072Z,89205.00
2022-12-11T15:44:21.420Z,89207.31
2022-12-11T15:45:46.122Z,89207.31
2022-12-11T15:47:14.156Z,89206.81
2022-12-11T15:48:35.096Z,89209.38
2022-12-11T15:49:58.268Z,89213.72
2022-12-11T15:51:19.065Z,89217.81
2022-12-11T15:52:40.035Z,89223.22
2022-12-11T15:54:01.092Z,89222.41
2022-12-11T15:55:22.830Z,89225.50
2022-12-11T15:56:43.509Z,89221.69
2022-12-11T15:58:09.500Z,89230.41
2022-12-11T15:59:30.669Z,89227.06
2022-12-11T16:00:51.803Z,89232.47
2022-12-11T16:02:13.173Z,89232.72
2022-12-11T16:03:33.982Z,89227.34
2022-12-11T16:04:55.112Z,89225.53
2022-12-11T16:06:15.711Z,89228.63
2022-12-11T16:07:36.739Z,89226.78
2022-12-11T16:08:57.660Z,89225.78
2022-12-11T16:10:19.918Z,89230.91
2022-12-11T16:11:40.838Z,89233.19
2022-12-11T16:13:02.754Z,89230.91
2022-12-11T16:14:23.605Z,89237.06
2022-12-11T16:15:46.277Z,89241.94
2022-12-11T16:17:08.283Z,89240.69
2022-12-11T16:18:28.969Z,89248.16
2022-12-11T16:19:49.530Z,89248.16
2022-12-11T16:21:10.388Z,89239.72
2022-12-11T16:22:31.187Z,89239.19
2022-12-11T16:23:52.850Z,89243.81
2022-12-11T16:25:14.080Z,89238.19
2022-12-11T16:26:35.121Z,89244.84